Terminal Aerodrome Forecast
Issued by NWS

Current Version | Previous Version | Text Only | Print | Product List | Glossary On
Versions: 1 2 3 4 5 6 7 8 9 10 11 12 13 14 15 16 17 18 19 20 21 22 23 24 25 26 27 28
000
FTAK31 PANC 271743
TAFADQ
TAF
PADQ 271743Z 2718/2818 34006KT P6SM -SHRA SCT009 OVC015
      TEMPO 2718/2720 5SM -RA BR BKN009 OVC015
     FM272000 01008KT 4SM -RA BR SCT008 OVC015
     FM280400 34010G15KT 6SM -SHRA BKN030 OVC050=

USA.gov is the U.S. government's official web portal to all federal, state and local government web resources and services.